Terminal Aerodrome Forecast
Issued by NWS

Home | Current Version | Previous Version | Text Only | Print | Product List | Glossary Off
Versions: 1 2 3 4 5 6 7 8 9 10 11 12 13 14 15 16 17 18

000
FTUS42 KMHX 272345
TAFISO
TAF
KISO 272345Z 2800/2824 18005KT P6SM SCT200
      TEMPO 2808/2811 4SM BR
     FM281200 22007KT P6SM VCSH BKN050
     FM281500 23008KT P6SM VCSH BKN035
      AMD LTD TO CLD VIS AND WIND=

USA.gov is the U.S. government's official web portal to all federal, state and local government web resources and services.